sensor_id;sensor_type;location;lat;lon;timestamp;pressure;altitude;pressure_sealevel;temperature;humidity
70053;BME280;57398;52.032;4.376;2023-05-20T00:00:31;100166.53;;;11.09;100.00
70053;BME280;57398;52.032;4.376;2023-05-20T00:03:19;100163.41;;;11.07;100.00
70053;BME280;57398;52.032;4.376;2023-05-20T00:06:07;100165.66;;;11.04;100.00
70053;BME280;57398;52.032;4.376;2023-05-20T00:08:57;100156.25;;;10.98;100.00
70053;BME280;57398;52.032;4.376;2023-05-20T00:11:46;100171.75;;;10.93;100.00
70053;BME280;57398;52.032;4.376;2023-05-20T00:14:34;100183.66;;;10.88;100.00
70053;BME280;57398;52.032;4.376;2023-05-20T00:17:22;100191.66;;;10.87;100.00
70053;BME280;57398;52.032;4.376;2023-05-20T00:20:12;100209.00;;;10.81;100.00
70053;BME280;57398;52.032;4.376;2023-05-20T00:23:00;100210.78;;;10.81;100.00
70053;BME280;57398;52.032;4.376;2023-05-20T00:25:49;100212.94;;;10.84;100.00
70053;BME280;57398;52.032;4.376;2023-05-20T00:28:37;100219.38;;;10.81;100.00
70053;BME280;57398;52.032;4.376;2023-05-20T00:31:25;100221.09;;;10.76;100.00
70053;BME280;57398;52.032;4.376;2023-05-20T00:34:14;100231.97;;;10.73;100.00
70053;BME280;57398;52.032;4.376;2023-05-20T00:37:02;100233.78;;;10.72;100.00
70053;BME280;57398;52.032;4.376;2023-05-20T00:39:50;100247.69;;;10.66;100.00
70053;BME280;57398;52.032;4.376;2023-05-20T00:42:39;100262.94;;;10.62;100.00
70053;BME280;57398;52.032;4.376;2023-05-20T00:45:28;100224.81;;;10.51;100.00
70053;BME280;57398;52.032;4.376;2023-05-20T00:48:16;100240.25;;;10.58;100.00
70053;BME280;57398;52.032;4.376;2023-05-20T00:51:04;100253.06;;;10.47;100.00
70053;BME280;57398;52.032;4.376;2023-05-20T00:53:54;100282.56;;;10.41;100.00
70053;BME280;57398;52.032;4.376;2023-05-20T00:56:42;100302.06;;;10.44;100.00
70053;BME280;57398;52.032;4.376;2023-05-20T00:59:33;100314.41;;;10.37;100.00
70053;BME280;57398;52.032;4.376;2023-05-20T01:02:21;100331.00;;;10.36;100.00
70053;BME280;57398;52.032;4.376;2023-05-20T01:05:10;100334.94;;;10.38;100.00
70053;BME280;57398;52.032;4.376;2023-05-20T01:07:58;100351.22;;;10.34;100.00
70053;BME280;57398;52.032;4.376;2023-05-20T01:10:50;100351.22;;;10.34;100.00
70053;BME280;57398;52.032;4.376;2023-05-20T01:13:45;100335.28;;;10.30;100.00
70053;BME280;57398;52.032;4.376;2023-05-20T01:16:36;100222.09;;;10.29;100.00
70053;BME280;57398;52.032;4.376;2023-05-20T01:19:30;100209.00;;;10.24;100.00
70053;BME280;57398;52.032;4.376;2023-05-20T01:22:24;100196.03;;;10.24;100.00
70053;BME280;57398;52.032;4.376;2023-05-20T01:25:12;100161.81;;;10.27;100.00
70053;BME280;57398;52.032;4.376;2023-05-20T01:28:00;100156.28;;;10.23;100.00
70053;BME280;57398;52.032;4.376;2023-05-20T01:30:51;100196.34;;;10.27;100.00
70053;BME280;57398;52.032;4.376;2023-05-20T01:33:43;100218.81;;;10.22;100.00
70053;BME280;57398;52.032;4.376;2023-05-20T01:36:33;100203.56;;;10.25;100.00
70053;BME280;57398;52.032;4.376;2023-05-20T01:39:22;100209.22;;;10.22;100.00
70053;BME280;57398;52.032;4.376;2023-05-20T01:42:13;100199.84;;;10.21;100.00
70053;BME280;57398;52.032;4.376;2023-05-20T01:45:03;100217.00;;;10.22;100.00
70053;BME280;57398;52.032;4.376;2023-05-20T01:47:51;100187.81;;;10.15;100.00
70053;BME280;57398;52.032;4.376;2023-05-20T01:50:39;100187.34;;;10.18;100.00
70053;BME280;57398;52.032;4.376;2023-05-20T01:53:28;100149.31;;;10.12;100.00
70053;BME280;57398;52.032;4.376;2023-05-20T01:56:17;100065.28;;;10.13;100.00
70053;BME280;57398;52.032;4.376;2023-05-20T01:59:05;100084.69;;;10.11;100.00
70053;BME280;57398;52.032;4.376;2023-05-20T02:01:54;100077.22;;;10.14;100.00
70053;BME280;57398;52.032;4.376;2023-05-20T02:04:43;100088.16;;;10.16;100.00
70053;BME280;57398;52.032;4.376;2023-05-20T02:07:33;100085.25;;;10.13;100.00
70053;BME280;57398;52.032;4.376;2023-05-20T02:10:21;100186.34;;;10.19;100.00
70053;BME280;57398;52.032;4.376;2023-05-20T02:13:11;100237.31;;;10.25;100.00
70053;BME280;57398;52.032;4.376;2023-05-20T02:15:59;100240.59;;;10.21;100.00
70053;BME280;57398;52.032;4.376;2023-05-20T02:18:48;100270.38;;;10.18;100.00
70053;BME280;57398;52.032;4.376;2023-05-20T02:21:38;100312.69;;;10.19;100.00
70053;BME280;57398;52.032;4.376;2023-05-20T02:24:26;100325.13;;;10.17;100.00
70053;BME280;57398;52.032;4.376;2023-05-20T02:27:14;100339.03;;;10.11;100.00
70053;BME280;57398;52.032;4.376;2023-05-20T02:30:05;100323.75;;;10.14;100.00
70053;BME280;57398;52.032;4.376;2023-05-20T02:32:54;100314.63;;;10.12;100.00
70053;BME280;57398;52.032;4.376;2023-05-20T02:35:43;100317.69;;;10.09;100.00
70053;BME280;57398;52.032;4.376;2023-05-20T02:38:34;100254.50;;;10.03;100.00
70053;BME280;57398;52.032;4.376;2023-05-20T02:41:22;100243.91;;;10.04;100.00
70053;BME280;57398;52.032;4.376;2023-05-20T02:44:10;100226.88;;;10.09;100.00
70053;BME280;57398;52.032;4.376;2023-05-20T02:46:59;100207.22;;;10.01;100.00
70053;BME280;57398;52.032;4.376;2023-05-20T02:49:47;100189.06;;;10.01;100.00
70053;BME280;57398;52.032;4.376;2023-05-20T02:52:35;100155.75;;;10.10;100.00
70053;BME280;57398;52.032;4.376;2023-05-20T02:55:25;100137.38;;;10.11;100.00
70053;BME280;57398;52.032;4.376;2023-05-20T02:58:14;100121.81;;;10.11;100.00
70053;BME280;57398;52.032;4.376;2023-05-20T03:01:03;100106.00;;;10.13;100.00
70053;BME280;57398;52.032;4.376;2023-05-20T03:03:52;100085.81;;;10.15;100.00
70053;BME280;57398;52.032;4.376;2023-05-20T03:06:40;100080.16;;;10.18;100.00
70053;BME280;57398;52.032;4.376;2023-05-20T03:09:30;100088.78;;;10.23;100.00
70053;BME280;57398;52.032;4.376;2023-05-20T03:12:18;100119.94;;;10.23;100.00
70053;BME280;57398;52.032;4.376;2023-05-20T03:15:07;100135.75;;;10.22;100.00
70053;BME280;57398;52.032;4.376;2023-05-20T03:17:55;100145.56;;;10.32;100.00
70053;BME280;57398;52.032;4.376;2023-05-20T03:20:44;100169.78;;;10.37;100.00
70053;BME280;57398;52.032;4.376;2023-05-20T03:23:33;100206.59;;;10.34;100.00
70053;BME280;57398;52.032;4.376;2023-05-20T03:26:21;100232.34;;;10.36;100.00
70053;BME280;57398;52.032;4.376;2023-05-20T03:29:09;100263.03;;;10.39;100.00
70053;BME280;57398;52.032;4.376;2023-05-20T03:31:57;100308.72;;;10.40;100.00
70053;BME280;57398;52.032;4.376;2023-05-20T03:34:45;100331.66;;;10.43;100.00
70053;BME280;57398;52.032;4.376;2023-05-20T03:37:35;100351.53;;;10.49;100.00
70053;BME280;57398;52.032;4.376;2023-05-20T03:40:23;100362.91;;;10.48;100.00
70053;BME280;57398;52.032;4.376;2023-05-20T03:43:11;100376.13;;;10.46;100.00
70053;BME280;57398;52.032;4.376;2023-05-20T03:45:59;100378.72;;;10.46;100.00
70053;BME280;57398;52.032;4.376;2023-05-20T03:48:48;100385.41;;;10.42;100.00
70053;BME280;57398;52.032;4.376;2023-05-20T03:51:36;100389.91;;;10.47;100.00
70053;BME280;57398;52.032;4.376;2023-05-20T03:54:25;100379.53;;;10.47;100.00
70053;BME280;57398;52.032;4.376;2023-05-20T03:57:13;100383.03;;;10.41;100.00
70053;BME280;57398;52.032;4.376;2023-05-20T04:00:02;100375.47;;;10.39;100.00
70053;BME280;57398;52.032;4.376;2023-05-20T04:02:55;100364.19;;;10.34;100.00
70053;BME280;57398;52.032;4.376;2023-05-20T04:05:44;100345.00;;;10.35;100.00
70053;BME280;57398;52.032;4.376;2023-05-20T04:08:32;100320.50;;;10.31;100.00
70053;BME280;57398;52.032;4.376;2023-05-20T04:11:23;100280.00;;;10.30;100.00
70053;BME280;57398;52.032;4.376;2023-05-20T04:14:11;100220.72;;;10.26;100.00
70053;BME280;57398;52.032;4.376;2023-05-20T04:17:00;100186.06;;;10.33;100.00
70053;BME280;57398;52.032;4.376;2023-05-20T04:19:48;100167.00;;;10.27;100.00
70053;BME280;57398;52.032;4.376;2023-05-20T04:22:37;100129.31;;;10.24;100.00
70053;BME280;57398;52.032;4.376;2023-05-20T04:25:25;100108.56;;;10.24;100.00
70053;BME280;57398;52.032;4.376;2023-05-20T04:28:14;100085.63;;;10.21;100.00
70053;BME280;57398;52.032;4.376;2023-05-20T04:31:03;100094.53;;;10.25;100.00
70053;BME280;57398;52.032;4.376;2023-05-20T04:33:51;100065.75;;;10.27;100.00
70053;BME280;57398;52.032;4.376;2023-05-20T04:36:39;100052.00;;;10.26;100.00
70053;BME280;57398;52.032;4.376;2023-05-20T04:39:27;100018.59;;;10.30;100.00
70053;BME280;57398;52.032;4.376;2023-05-20T04:42:15;99994.78;;;10.33;100.00
70053;BME280;57398;52.032;4.376;2023-05-20T04:45:07;99970.16;;;10.36;100.00
70053;BME280;57398;52.032;4.376;2023-05-20T04:47:55;99965.81;;;10.41;100.00
70053;BME280;57398;52.032;4.376;2023-05-20T04:50:44;99949.50;;;10.46;100.00
70053;BME280;57398;52.032;4.376;2023-05-20T04:53:32;99936.84;;;10.50;100.00
70053;BME280;57398;52.032;4.376;2023-05-20T04:56:21;99926.53;;;10.55;100.00
70053;BME280;57398;52.032;4.376;2023-05-20T04:59:12;99921.38;;;10.60;100.00
70053;BME280;57398;52.032;4.376;2023-05-20T05:02:01;99912.09;;;10.64;100.00
70053;BME280;57398;52.032;4.376;2023-05-20T05:04:49;99911.41;;;10.74;100.00
70053;BME280;57398;52.032;4.376;2023-05-20T05:07:38;99919.34;;;10.84;100.00
70053;BME280;57398;52.032;4.376;2023-05-20T05:10:26;99939.16;;;10.90;100.00
70053;BME280;57398;52.032;4.376;2023-05-20T05:13:14;99992.03;;;11.01;100.00
70053;BME280;57398;52.032;4.376;2023-05-20T05:16:02;100040.28;;;11.14;100.00
70053;BME280;57398;52.032;4.376;2023-05-20T05:18:52;100130.53;;;11.18;100.00
70053;BME280;57398;52.032;4.376;2023-05-20T05:21:40;100231.50;;;11.26;100.00
70053;BME280;57398;52.032;4.376;2023-05-20T05:24:28;100342.16;;;11.34;100.00
70053;BME280;57398;52.032;4.376;2023-05-20T05:27:16;100438.22;;;11.41;100.00
70053;BME280;57398;52.032;4.376;2023-05-20T05:30:05;100445.34;;;11.45;100.00
70053;BME280;57398;52.032;4.376;2023-05-20T05:32:54;100453.59;;;11.42;100.00
70053;BME280;57398;52.032;4.376;2023-05-20T05:35:43;100455.25;;;11.48;100.00
70053;BME280;57398;52.032;4.376;2023-05-20T05:38:31;100461.47;;;11.47;100.00
70053;BME280;57398;52.032;4.376;2023-05-20T05:41:20;100469.75;;;11.44;100.00
70053;BME280;57398;52.032;4.376;2023-05-20T05:44:08;100471.09;;;11.47;100.00
70053;BME280;57398;52.032;4.376;2023-05-20T05:46:56;100475.84;;;11.50;100.00
70053;BME280;57398;52.032;4.376;2023-05-20T05:49:44;100469.47;;;11.58;100.00
70053;BME280;57398;52.032;4.376;2023-05-20T05:52:33;100463.09;;;11.65;100.00
70053;BME280;57398;52.032;4.376;2023-05-20T05:55:21;100469.75;;;11.73;100.00
70053;BME280;57398;52.032;4.376;2023-05-20T05:58:10;100468.69;;;11.74;100.00
70053;BME280;57398;52.032;4.376;2023-05-20T06:00:58;100471.16;;;11.64;100.00
70053;BME280;57398;52.032;4.376;2023-05-20T06:03:47;100467.91;;;11.73;100.00
70053;BME280;57398;52.032;4.376;2023-05-20T06:06:36;100467.91;;;11.73;100.00
70053;BME280;57398;52.032;4.376;2023-05-20T06:09:25;100466.09;;;11.74;100.00
70053;BME280;57398;52.032;4.376;2023-05-20T06:12:13;100452.25;;;11.85;100.00
70053;BME280;57398;52.032;4.376;2023-05-20T06:15:02;100444.72;;;12.01;100.00
70053;BME280;57398;52.032;4.376;2023-05-20T06:17:50;100415.75;;;12.14;100.00
70053;BME280;57398;52.032;4.376;2023-05-20T06:20:39;100428.75;;;11.80;100.00
70053;BME280;57398;52.032;4.376;2023-05-20T06:23:27;100428.59;;;11.87;100.00
70053;BME280;57398;52.032;4.376;2023-05-20T06:26:16;100427.91;;;11.91;100.00
70053;BME280;57398;52.032;4.376;2023-05-20T06:29:04;100426.63;;;11.94;100.00
70053;BME280;57398;52.032;4.376;2023-05-20T06:31:52;100403.59;;;12.20;100.00
70053;BME280;57398;52.032;4.376;2023-05-20T06:34:40;100396.09;;;12.23;100.00
70053;BME280;57398;52.032;4.376;2023-05-20T06:37:28;100367.22;;;12.47;100.00
70053;BME280;57398;52.032;4.376;2023-05-20T06:40:16;100343.22;;;12.45;100.00
70053;BME280;57398;52.032;4.376;2023-05-20T06:43:06;100319.47;;;12.63;100.00
70053;BME280;57398;52.032;4.376;2023-05-20T06:45:54;100309.59;;;12.65;100.00
70053;BME280;57398;52.032;4.376;2023-05-20T06:48:42;100291.88;;;12.67;100.00
70053;BME280;57398;52.032;4.376;2023-05-20T06:51:30;100272.78;;;12.62;100.00
70053;BME280;57398;52.032;4.376;2023-05-20T06:54:18;100251.06;;;12.78;100.00
70053;BME280;57398;52.032;4.376;2023-05-20T06:57:07;100232.47;;;12.96;100.00
70053;BME280;57398;52.032;4.376;2023-05-20T06:59:57;100213.19;;;12.97;100.00
70053;BME280;57398;52.032;4.376;2023-05-20T07:02:45;100191.97;;;13.21;100.00
70053;BME280;57398;52.032;4.376;2023-05-20T07:05:33;100205.84;;;13.27;100.00
70053;BME280;57398;52.032;4.376;2023-05-20T07:08:22;100175.97;;;13.45;100.00
70053;BME280;57398;52.032;4.376;2023-05-20T07:11:10;100145.50;;;13.60;100.00
70053;BME280;57398;52.032;4.376;2023-05-20T07:13:58;100096.97;;;13.65;100.00
70053;BME280;57398;52.032;4.376;2023-05-20T07:16:48;100031.47;;;13.76;100.00
70053;BME280;57398;52.032;4.376;2023-05-20T07:19:36;100005.91;;;13.68;100.00
70053;BME280;57398;52.032;4.376;2023-05-20T07:22:24;99990.00;;;13.75;100.00
70053;BME280;57398;52.032;4.376;2023-05-20T07:25:12;99993.66;;;13.79;100.00
70053;BME280;57398;52.032;4.376;2023-05-20T07:28:01;99984.28;;;13.88;100.00
70053;BME280;57398;52.032;4.376;2023-05-20T07:30:49;99986.34;;;13.96;100.00
70053;BME280;57398;52.032;4.376;2023-05-20T07:33:40;100029.69;;;14.08;100.00
70053;BME280;57398;52.032;4.376;2023-05-20T07:36:28;100025.28;;;14.13;100.00
70053;BME280;57398;52.032;4.376;2023-05-20T07:39:17;100011.16;;;14.04;100.00
70053;BME280;57398;52.032;4.376;2023-05-20T07:42:05;100000.44;;;14.26;100.00
70053;BME280;57398;52.032;4.376;2023-05-20T07:44:53;99990.47;;;14.38;100.00
70053;BME280;57398;52.032;4.376;2023-05-20T07:47:41;99976.94;;;14.36;100.00
70053;BME280;57398;52.032;4.376;2023-05-20T07:50:31;99974.28;;;14.46;100.00
70053;BME280;57398;52.032;4.376;2023-05-20T07:53:19;100060.78;;;14.50;100.00
70053;BME280;57398;52.032;4.376;2023-05-20T07:56:07;100017.91;;;14.56;100.00
70053;BME280;57398;52.032;4.376;2023-05-20T07:58:57;100003.75;;;14.73;100.00
70053;BME280;57398;52.032;4.376;2023-05-20T08:01:46;99987.28;;;14.77;100.00
70053;BME280;57398;52.032;4.376;2023-05-20T08:04:34;99985.09;;;15.10;100.00
70053;BME280;57398;52.032;4.376;2023-05-20T08:07:24;99953.72;;;15.05;100.00
70053;BME280;57398;52.032;4.376;2023-05-20T08:10:12;99960.44;;;15.21;100.00
70053;BME280;57398;52.032;4.376;2023-05-20T08:13:01;99946.84;;;15.19;100.00
70053;BME280;57398;52.032;4.376;2023-05-20T08:15:49;99939.97;;;15.28;100.00
70053;BME280;57398;52.032;4.376;2023-05-20T08:18:40;99944.69;;;15.26;100.00
70053;BME280;57398;52.032;4.376;2023-05-20T08:21:28;99935.69;;;15.43;100.00
70053;BME280;57398;52.032;4.376;2023-05-20T08:24:20;99919.94;;;15.48;100.00
70053;BME280;57398;52.032;4.376;2023-05-20T08:27:12;99900.09;;;15.81;100.00
70053;BME280;57398;52.032;4.376;2023-05-20T08:30:01;99893.00;;;15.82;100.00
70053;BME280;57398;52.032;4.376;2023-05-20T08:32:53;99890.19;;;15.78;100.00
70053;BME280;57398;52.032;4.376;2023-05-20T08:35:42;99864.97;;;15.82;100.00
70053;BME280;57398;52.032;4.376;2023-05-20T08:38:33;99857.25;;;15.96;100.00
70053;BME280;57398;52.032;4.376;2023-05-20T08:41:24;99858.72;;;16.07;100.00
70053;BME280;57398;52.032;4.376;2023-05-20T08:44:12;99834.34;;;16.07;100.00
70053;BME280;57398;52.032;4.376;2023-05-20T08:47:01;99851.09;;;16.11;100.00
70053;BME280;57398;52.032;4.376;2023-05-20T08:49:50;99837.97;;;16.35;100.00
70053;BME280;57398;52.032;4.376;2023-05-20T08:52:42;99817.53;;;16.56;100.00
70053;BME280;57398;52.032;4.376;2023-05-20T08:55:35;99801.84;;;17.54;100.00
70053;BME280;57398;52.032;4.376;2023-05-20T08:58:25;99786.81;;;17.74;100.00
70053;BME280;57398;52.032;4.376;2023-05-20T09:01:13;99750.91;;;18.11;100.00
70053;BME280;57398;52.032;4.376;2023-05-20T09:04:02;99724.22;;;18.76;100.00
70053;BME280;57398;52.032;4.376;2023-05-20T09:06:50;99712.84;;;18.90;100.00
70053;BME280;57398;52.032;4.376;2023-05-20T09:09:38;99718.84;;;18.81;100.00
70053;BME280;57398;52.032;4.376;2023-05-20T09:12:27;99709.41;;;19.12;100.00
70053;BME280;57398;52.032;4.376;2023-05-20T09:15:16;99732.34;;;18.66;100.00
70053;BME280;57398;52.032;4.376;2023-05-20T09:18:05;99746.75;;;18.10;100.00
70053;BME280;57398;52.032;4.376;2023-05-20T09:20:54;99698.47;;;19.18;100.00
70053;BME280;57398;52.032;4.376;2023-05-20T09:23:46;99703.19;;;19.08;100.00
70053;BME280;57398;52.032;4.376;2023-05-20T09:26:34;99729.13;;;18.69;100.00
70053;BME280;57398;52.032;4.376;2023-05-20T09:29:24;99740.03;;;18.40;100.00
70053;BME280;57398;52.032;4.376;2023-05-20T09:32:14;99725.19;;;18.58;100.00
70053;BME280;57398;52.032;4.376;2023-05-20T09:35:02;99727.41;;;18.65;100.00
70053;BME280;57398;52.032;4.376;2023-05-20T09:37:53;99739.22;;;18.53;100.00
70053;BME280;57398;52.032;4.376;2023-05-20T09:40:42;99689.44;;;18.79;100.00
70053;BME280;57398;52.032;4.376;2023-05-20T09:43:32;99689.28;;;19.07;100.00
70053;BME280;57398;52.032;4.376;2023-05-20T09:46:23;99677.38;;;18.78;100.00
70053;BME280;57398;52.032;4.376;2023-05-20T09:49:13;99674.19;;;18.90;100.00
70053;BME280;57398;52.032;4.376;2023-05-20T09:52:03;99677.69;;;19.08;100.00
70053;BME280;57398;52.032;4.376;2023-05-20T09:54:52;99692.81;;;18.57;100.00
70053;BME280;57398;52.032;4.376;2023-05-20T09:57:42;99704.91;;;18.58;100.00
70053;BME280;57398;52.032;4.376;2023-05-20T10:00:30;99703.72;;;18.42;100.00
70053;BME280;57398;52.032;4.376;2023-05-20T10:03:21;99651.44;;;19.34;100.00
70053;BME280;57398;52.032;4.376;2023-05-20T10:06:26;99684.59;;;19.44;100.00
70053;BME280;57398;52.032;4.376;2023-05-20T10:09:27;99666.19;;;19.53;100.00
70053;BME280;57398;52.032;4.376;2023-05-20T10:12:28;99674.81;;;19.84;100.00
70053;BME280;57398;52.032;4.376;2023-05-20T10:15:26;99699.13;;;18.93;100.00
70053;BME280;57398;52.032;4.376;2023-05-20T10:18:25;99710.97;;;18.23;100.00
70053;BME280;57398;52.032;4.376;2023-05-20T10:21:21;99732.16;;;17.76;100.00
70053;BME280;57398;52.032;4.376;2023-05-20T10:24:10;99699.44;;;18.55;100.00
70053;BME280;57398;52.032;4.376;2023-05-20T10:27:01;99678.31;;;18.82;100.00
70053;BME280;57398;52.032;4.376;2023-05-20T10:29:51;99685.59;;;18.40;100.00
70053;BME280;57398;52.032;4.376;2023-05-20T10:32:48;99698.00;;;17.90;100.00
70053;BME280;57398;52.032;4.376;2023-05-20T10:35:46;99686.88;;;17.79;100.00
70053;BME280;57398;52.032;4.376;2023-05-20T10:38:35;99702.25;;;17.16;100.00
70053;BME280;57398;52.032;4.376;2023-05-20T10:41:25;99653.78;;;18.06;100.00
70053;BME280;57398;52.032;4.376;2023-05-20T10:44:13;99630.91;;;18.51;100.00
70053;BME280;57398;52.032;4.376;2023-05-20T10:47:01;99633.16;;;18.67;100.00
70053;BME280;57398;52.032;4.376;2023-05-20T10:50:25;99649.53;;;17.68;100.00
70053;BME280;57398;52.032;4.376;2023-05-20T10:53:13;99669.31;;;17.52;100.00
70053;BME280;57398;52.032;4.376;2023-05-20T10:56:20;99644.22;;;17.73;100.00
70053;BME280;57398;52.032;4.376;2023-05-20T10:59:09;99602.91;;;18.78;100.00
70053;BME280;57398;52.032;4.376;2023-05-20T11:01:58;99596.44;;;18.84;100.00
70053;BME280;57398;52.032;4.376;2023-05-20T11:04:47;99609.34;;;18.40;100.00
70053;BME280;57398;52.032;4.376;2023-05-20T11:07:35;99609.28;;;18.32;100.00
70053;BME280;57398;52.032;4.376;2023-05-20T11:10:23;99585.09;;;18.75;100.00
70053;BME280;57398;52.032;4.376;2023-05-20T11:13:13;99570.13;;;18.84;100.00
70053;BME280;57398;52.032;4.376;2023-05-20T11:16:02;99561.06;;;19.08;100.00
70053;BME280;57398;52.032;4.376;2023-05-20T11:18:50;99553.81;;;19.13;100.00
70053;BME280;57398;52.032;4.376;2023-05-20T11:21:42;99557.53;;;18.41;100.00
70053;BME280;57398;52.032;4.376;2023-05-20T11:24:30;99560.72;;;18.29;100.00
70053;BME280;57398;52.032;4.376;2023-05-20T11:27:18;99565.22;;;18.91;100.00
70053;BME280;57398;52.032;4.376;2023-05-20T11:30:09;99584.59;;;18.73;100.00
70053;BME280;57398;52.032;4.376;2023-05-20T11:32:58;99538.41;;;18.89;100.00
70053;BME280;57398;52.032;4.376;2023-05-20T11:35:48;99552.50;;;18.53;100.00
70053;BME280;57398;52.032;4.376;2023-05-20T11:38:39;99519.72;;;18.91;100.00
70053;BME280;57398;52.032;4.376;2023-05-20T11:41:28;99513.09;;;19.19;100.00
70053;BME280;57398;52.032;4.376;2023-05-20T11:44:18;99512.19;;;19.15;100.00
70053;BME280;57398;52.032;4.376;2023-05-20T11:47:08;99495.59;;;19.06;100.00
70053;BME280;57398;52.032;4.376;2023-05-20T11:49:56;99516.22;;;19.30;100.00
70053;BME280;57398;52.032;4.376;2023-05-20T11:52:44;99491.69;;;20.08;100.00
70053;BME280;57398;52.032;4.376;2023-05-20T11:55:44;99518.50;;;19.14;100.00
70053;BME280;57398;52.032;4.376;2023-05-20T11:58:32;99515.22;;;18.91;100.00
70053;BME280;57398;52.032;4.376;2023-05-20T12:01:21;99501.59;;;18.49;100.00
70053;BME280;57398;52.032;4.376;2023-05-20T12:04:11;99483.84;;;19.03;100.00
70053;BME280;57398;52.032;4.376;2023-05-20T12:07:00;99488.63;;;19.01;100.00
70053;BME280;57398;52.032;4.376;2023-05-20T12:09:49;99461.06;;;19.51;100.00
70053;BME280;57398;52.032;4.376;2023-05-20T12:12:38;99499.34;;;19.66;100.00
70053;BME280;57398;52.032;4.376;2023-05-20T12:15:26;99496.69;;;19.92;100.00
70053;BME280;57398;52.032;4.376;2023-05-20T12:18:14;99467.28;;;19.20;100.00
70053;BME280;57398;52.032;4.376;2023-05-20T12:21:03;99468.69;;;18.60;100.00
70053;BME280;57398;52.032;4.376;2023-05-20T12:23:52;99442.50;;;19.13;100.00
70053;BME280;57398;52.032;4.376;2023-05-20T12:26:43;99463.22;;;19.05;100.00
70053;BME280;57398;52.032;4.376;2023-05-20T12:29:32;99460.16;;;19.03;100.00
70053;BME280;57398;52.032;4.376;2023-05-20T12:32:20;99481.97;;;19.21;100.00
70053;BME280;57398;52.032;4.376;2023-05-20T12:35:09;99464.94;;;19.19;100.00
70053;BME280;57398;52.032;4.376;2023-05-20T12:37:59;99455.81;;;18.50;100.00
70053;BME280;57398;52.032;4.376;2023-05-20T12:40:47;99436.53;;;18.72;100.00
70053;BME280;57398;52.032;4.376;2023-05-20T12:43:35;99473.13;;;19.00;100.00
70053;BME280;57398;52.032;4.376;2023-05-20T12:46:23;99447.34;;;18.71;100.00
70053;BME280;57398;52.032;4.376;2023-05-20T12:49:11;99425.84;;;18.60;100.00
70053;BME280;57398;52.032;4.376;2023-05-20T12:52:00;99429.19;;;19.09;100.00
70053;BME280;57398;52.032;4.376;2023-05-20T12:54:56;99438.78;;;19.22;100.00
70053;BME280;57398;52.032;4.376;2023-05-20T12:57:44;99433.34;;;19.45;100.00
70053;BME280;57398;52.032;4.376;2023-05-20T13:00:33;99429.50;;;19.25;100.00
70053;BME280;57398;52.032;4.376;2023-05-20T13:03:21;99469.75;;;19.25;100.00
70053;BME280;57398;52.032;4.376;2023-05-20T13:06:09;99426.84;;;18.99;100.00
70053;BME280;57398;52.032;4.376;2023-05-20T13:08:58;99422.72;;;18.67;100.00
70053;BME280;57398;52.032;4.376;2023-05-20T13:11:48;99413.53;;;19.48;100.00
70053;BME280;57398;52.032;4.376;2023-05-20T13:14:36;99421.44;;;19.39;100.00
70053;BME280;57398;52.032;4.376;2023-05-20T13:17:24;99411.84;;;20.07;100.00
70053;BME280;57398;52.032;4.376;2023-05-20T13:20:12;99323.59;;;18.93;100.00
70053;BME280;57398;52.032;4.376;2023-05-20T13:23:02;99305.00;;;18.98;100.00
70053;BME280;57398;52.032;4.376;2023-05-20T13:25:50;99311.19;;;19.20;100.00
70053;BME280;57398;52.032;4.376;2023-05-20T13:28:39;99319.88;;;20.06;100.00
70053;BME280;57398;52.032;4.376;2023-05-20T13:31:27;99319.75;;;20.02;100.00
70053;BME280;57398;52.032;4.376;2023-05-20T13:34:15;99263.50;;;19.98;100.00
70053;BME280;57398;52.032;4.376;2023-05-20T13:37:04;99246.47;;;19.19;100.00
70053;BME280;57398;52.032;4.376;2023-05-20T13:39:52;99210.22;;;19.24;100.00
70053;BME280;57398;52.032;4.376;2023-05-20T13:42:43;99243.44;;;18.82;100.00
70053;BME280;57398;52.032;4.376;2023-05-20T13:45:33;99334.69;;;19.42;100.00
70053;BME280;57398;52.032;4.376;2023-05-20T13:48:21;99352.88;;;19.82;100.00
70053;BME280;57398;52.032;4.376;2023-05-20T13:51:09;99316.66;;;19.53;100.00
70053;BME280;57398;52.032;4.376;2023-05-20T13:53:57;99265.34;;;19.12;100.00
70053;BME280;57398;52.032;4.376;2023-05-20T13:56:45;99344.47;;;19.24;100.00
70053;BME280;57398;52.032;4.376;2023-05-20T13:59:34;99305.59;;;19.30;100.00
70053;BME280;57398;52.032;4.376;2023-05-20T14:02:23;99285.31;;;19.78;100.00
70053;BME280;57398;52.032;4.376;2023-05-20T14:05:11;99280.63;;;19.83;100.00
70053;BME280;57398;52.032;4.376;2023-05-20T14:08:00;99428.72;;;20.06;100.00
70053;BME280;57398;52.032;4.376;2023-05-20T14:10:49;99501.13;;;20.65;100.00
70053;BME280;57398;52.032;4.376;2023-05-20T14:13:40;99417.06;;;19.69;100.00
70053;BME280;57398;52.032;4.376;2023-05-20T14:16:28;99386.72;;;19.28;100.00
70053;BME280;57398;52.032;4.376;2023-05-20T14:19:18;99316.41;;;19.37;100.00
70053;BME280;57398;52.032;4.376;2023-05-20T14:22:06;99453.47;;;19.58;100.00
70053;BME280;57398;52.032;4.376;2023-05-20T14:24:54;99551.25;;;19.83;100.00
70053;BME280;57398;52.032;4.376;2023-05-20T14:27:43;99495.16;;;19.30;100.00
70053;BME280;57398;52.032;4.376;2023-05-20T14:30:31;99497.91;;;19.95;100.00
70053;BME280;57398;52.032;4.376;2023-05-20T14:33:20;99514.34;;;19.31;100.00
70053;BME280;57398;52.032;4.376;2023-05-20T14:36:09;99454.88;;;19.73;100.00
70053;BME280;57398;52.032;4.376;2023-05-20T14:38:58;99517.81;;;19.75;100.00